Time;durP1;ratioP1;P1;durP2;ratioP2;P2;SDS_P1;SDS_P2;PMS_P1;PMS_P2;Temp;Humidity;BMP_temperature;BMP_pressure;BME280_temperature;BME280_humidity;BME280_pressure;Samples;Min_cycle;Max_cycle;Signal;HPM_P1;HPM_P2
2024/01/26 00:01:52;;;;;;;4.00;3.90;;;10.80;99.90;;;;;;5039382;28;20460;-76
2024/01/26 00:04:21;;;;;;;3.97;3.77;;;10.70;70.20;;;;;;5037395;28;21031;-79
2024/01/26 00:06:49;;;;;;;4.20;3.90;;;10.70;99.90;;;;;;5035559;28;21012;-82
2024/01/26 00:09:18;;;;;;;3.50;3.40;;;10.80;59.00;;;;;;5034348;28;20478;-81
2024/01/26 00:11:47;;;;;;;3.90;3.67;;;10.80;1.00;;;;;;5038631;28;20455;-81
2024/01/26 00:14:15;;;;;;;3.80;3.70;;;10.80;1.00;;;;;;5039958;28;20458;-81
2024/01/26 00:16:43;;;;;;;3.50;3.40;;;10.80;1.00;;;;;;5034051;28;20456;-79
2024/01/26 00:19:13;;;;;;;3.80;3.70;;;10.80;1.00;;;;;;5035802;28;20475;-81
2024/01/26 00:21:41;;;;;;;4.30;4.00;;;10.80;1.00;;;;;;5036767;28;20551;-79
2024/01/26 00:24:10;;;;;;;4.10;3.90;;;10.80;1.00;;;;;;5035233;28;20563;-80
2024/01/26 00:26:38;;;;;;;3.33;3.23;;;10.70;1.00;;;;;;5035325;28;21157;-81
2024/01/26 00:29:07;;;;;;;3.77;3.60;;;10.70;1.00;;;;;;5033204;28;20510;-82
2024/01/26 00:31:35;;;;;;;3.80;3.67;;;10.70;1.00;;;;;;5037461;28;20452;-80
2024/01/26 00:34:03;;;;;;;3.50;3.30;;;10.60;1.00;;;;;;5035570;28;20456;-79
2024/01/26 00:36:33;;;;;;;3.37;3.27;;;10.70;1.00;;;;;;5033051;28;20471;-81
2024/01/26 00:39:02;;;;;;;3.30;3.20;;;10.70;1.00;;;;;;5036104;28;20457;-82
2024/01/26 00:41:31;;;;;;;3.50;3.40;;;10.70;1.00;;;;;;5040756;28;20476;-81
2024/01/26 00:43:59;;;;;;;3.20;3.10;;;10.70;1.00;;;;;;5042725;28;20482;-80
2024/01/26 00:46:27;;;;;;;3.30;3.20;;;10.70;1.00;;;;;;5035766;28;20456;-79
2024/01/26 00:48:55;;;;;;;3.57;3.47;;;10.70;99.90;;;;;;5032754;28;20460;-80
2024/01/26 00:51:24;;;;;;;3.70;3.60;;;10.70;1.00;;;;;;5034083;28;20451;-80
2024/01/26 00:53:54;;;;;;;3.30;3.20;;;10.70;99.90;;;;;;5030146;28;20456;-81
2024/01/26 00:56:22;;;;;;;3.30;3.20;;;10.70;99.90;;;;;;5032184;28;20451;-78
2024/01/26 00:58:50;;;;;;;3.30;3.10;;;10.60;1.00;;;;;;5031376;28;20452;-81
2024/01/26 01:01:19;;;;;;;3.10;3.00;;;10.60;1.00;;;;;;5033375;28;20480;-80
2024/01/26 01:03:48;;;;;;;3.10;3.00;;;10.60;1.00;;;;;;5030179;28;20522;-79
2024/01/26 01:06:16;;;;;;;3.17;3.07;;;10.60;1.00;;;;;;5039286;28;20496;-81
2024/01/26 01:08:47;;;;;;;3.17;3.07;;;10.60;1.00;;;;;;5038315;28;20448;-80
2024/01/26 01:11:17;;;;;;;3.30;3.20;;;10.60;1.00;;;;;;5035806;28;20942;-79
2024/01/26 01:13:45;;;;;;;3.23;3.13;;;10.60;1.00;;;;;;5035032;28;20468;-80
2024/01/26 01:16:13;;;;;;;3.10;3.00;;;10.60;1.00;;;;;;5038290;28;20460;-80
2024/01/26 01:18:41;;;;;;;3.37;3.27;;;10.60;1.00;;;;;;5035016;28;20468;-83
2024/01/26 01:21:10;;;;;;;3.60;3.50;;;10.50;1.00;;;;;;5035005;28;20489;-82
2024/01/26 01:23:38;;;;;;;3.47;3.37;;;10.60;1.00;;;;;;5033425;28;20460;-79
2024/01/26 01:26:06;;;;;;;3.77;3.67;;;10.50;1.00;;;;;;5035378;28;20572;-81
2024/01/26 01:28:36;;;;;;;4.10;3.90;;;10.50;1.00;;;;;;5033350;28;20981;-81
2024/01/26 01:31:04;;;;;;;3.83;3.73;;;10.50;1.00;;;;;;5035322;28;20496;-79
2024/01/26 01:33:32;;;;;;;3.90;3.80;;;10.50;1.00;;;;;;5038685;28;20818;-83
2024/01/26 01:36:01;;;;;;;4.30;4.10;;;10.50;1.00;;;;;;5037391;28;20466;-80
2024/01/26 01:38:29;;;;;;;4.23;4.03;;;10.50;1.00;;;;;;5033323;28;20456;-80
2024/01/26 01:40:57;;;;;;;3.60;3.50;;;10.50;1.00;;;;;;5030648;28;20472;-81
2024/01/26 01:43:26;;;;;;;3.90;3.70;;;10.50;1.00;;;;;;5032957;28;20452;-80
2024/01/26 01:45:55;;;;;;;3.90;3.60;;;10.50;1.00;;;;;;5031604;28;20484;-81
2024/01/26 01:48:24;;;;;;;3.37;3.27;;;10.40;1.00;;;;;;5036124;28;20448;-83
2024/01/26 01:50:52;;;;;;;3.47;3.37;;;10.50;1.00;;;;;;5033686;28;20468;-82
2024/01/26 01:53:21;;;;;;;3.73;3.63;;;10.50;1.00;;;;;;5032186;28;20449;-80
2024/01/26 01:55:51;;;;;;;3.20;3.10;;;10.50;1.00;;;;;;5033883;28;20486;-80
2024/01/26 01:58:22;;;;;;;3.40;3.30;;;10.60;1.00;;;;;;5028628;28;20502;-81
2024/01/26 02:00:50;;;;;;;3.30;3.20;;;10.50;1.00;;;;;;5032153;28;20484;-77
2024/01/26 02:03:21;;;;;;;3.10;3.00;;;10.60;1.00;;;;;;5039151;28;20564;-76
2024/01/26 02:05:50;;;;;;;3.70;2.87;;;10.50;99.90;;;;;;5030996;28;20450;-79
2024/01/26 02:08:18;;;;;;;2.83;2.73;;;10.50;99.90;;;;;;5033385;28;20571;-78
2024/01/26 02:10:46;;;;;;;2.87;2.80;;;10.50;1.00;;;;;;5028800;28;20475;-77
2024/01/26 02:13:15;;;;;;;3.00;2.90;;;10.50;99.90;;;;;;5029579;28;20489;-77
2024/01/26 02:15:43;;;;;;;3.13;2.93;;;10.50;99.90;;;;;;5030934;28;20510;-78
2024/01/26 02:18:12;;;;;;;3.00;2.90;;;10.60;99.90;;;;;;5038112;28;20546;-80
2024/01/26 02:20:41;;;;;;;2.80;2.70;;;10.60;99.90;;;;;;5030417;28;20480;-80
2024/01/26 02:23:24;;;;;;;2.70;2.70;;;10.60;99.90;;;;;;5038460;28;20481;-79
2024/01/26 02:25:53;;;;;;;3.07;2.97;;;10.60;99.90;;;;;;5037695;28;20448;-78
2024/01/26 02:28:22;;;;;;;3.10;3.00;;;10.60;99.90;;;;;;5035665;28;20474;-76
2024/01/26 02:30:52;;;;;;;3.30;3.20;;;10.60;54.60;;;;;;5033190;28;20541;-79
2024/01/26 02:33:20;;;;;;;3.10;3.00;;;10.60;1.00;;;;;;5033816;28;20459;-77
2024/01/26 02:35:49;;;;;;;3.57;3.40;;;10.60;96.00;;;;;;5040307;28;20499;-79
2024/01/26 02:38:17;;;;;;;2.80;2.80;;;10.60;1.00;;;;;;5035689;28;20460;-78
2024/01/26 02:40:48;;;;;;;2.90;2.80;;;10.60;1.00;;;;;;5036950;28;20491;-76
2024/01/26 02:43:17;;;;;;;2.90;2.90;;;10.50;1.00;;;;;;5036494;28;20460;-79
2024/01/26 02:45:46;;;;;;;3.00;2.90;;;10.50;63.80;;;;;;5036343;28;20875;-79
2024/01/26 02:48:16;;;;;;;2.90;2.80;;;10.50;34.80;;;;;;5030883;28;20468;-79
2024/01/26 02:50:45;;;;;;;3.43;3.33;;;10.60;99.90;;;;;;5033380;28;20927;-78
2024/01/26 02:53:13;;;;;;;3.63;3.00;;;10.50;61.00;;;;;;5036101;28;20471;-75
2024/01/26 02:55:42;;;;;;;3.00;2.90;;;10.40;99.90;;;;;;5036429;28;20452;-77
2024/01/26 02:58:11;;;;;;;3.30;3.20;;;10.40;99.90;;;;;;5036266;28;20497;-78
2024/01/26 03:00:39;;;;;;;3.50;3.40;;;10.40;99.90;;;;;;5035514;28;20538;-78
2024/01/26 03:03:08;;;;;;;3.20;3.10;;;10.40;1.00;;;;;;5036749;28;20490;-76
2024/01/26 03:05:36;;;;;;;3.60;3.50;;;10.40;99.90;;;;;;5036028;28;20460;-77
2024/01/26 03:08:05;;;;;;;3.20;3.10;;;10.30;1.00;;;;;;5032641;28;20456;-78
2024/01/26 03:10:33;;;;;;;3.60;3.50;;;10.40;99.90;;;;;;5031077;28;20938;-77
2024/01/26 03:13:02;;;;;;;3.40;3.30;;;10.40;99.90;;;;;;5030420;28;20452;-81
2024/01/26 03:15:31;;;;;;;3.93;3.73;;;10.40;99.90;;;;;;5032597;28;20460;-78
2024/01/26 03:18:00;;;;;;;3.63;3.53;;;10.30;1.00;;;;;;5030034;28;20571;-80
2024/01/26 03:20:30;;;;;;;3.63;3.53;;;10.40;1.00;;;;;;5031658;28;20492;-78
2024/01/26 03:22:58;;;;;;;3.40;3.30;;;10.40;1.00;;;;;;5029891;28;20465;-76
2024/01/26 03:25:26;;;;;;;5.27;4.30;;;10.40;1.00;;;;;;5033709;28;20529;-76
2024/01/26 03:27:55;;;;;;;3.90;3.70;;;10.30;1.00;;;;;;5032442;28;20453;-77
2024/01/26 03:30:23;;;;;;;4.03;3.83;;;10.30;1.00;;;;;;5034244;28;20479;-77
2024/01/26 03:32:53;;;;;;;3.90;3.80;;;10.30;99.90;;;;;;5039834;28;20436;-79
2024/01/26 03:35:22;;;;;;;3.90;3.80;;;10.20;1.00;;;;;;5039781;28;21455;-79
2024/01/26 03:37:50;;;;;;;4.10;3.70;;;10.30;50.20;;;;;;5038318;28;20536;-78
2024/01/26 03:40:20;;;;;;;3.67;3.57;;;10.30;1.00;;;;;;5038751;28;20591;-77
2024/01/26 03:42:48;;;;;;;4.13;3.63;;;10.20;1.00;;;;;;5036787;28;20480;-78
2024/01/26 03:45:16;;;;;;;3.93;3.83;;;10.20;99.90;;;;;;5035660;28;20484;-81
2024/01/26 03:47:45;;;;;;;4.00;3.90;;;10.20;99.90;;;;;;5035353;28;20460;-80
2024/01/26 03:50:16;;;;;;;4.00;3.80;;;10.20;44.00;;;;;;5036285;28;20468;-78
2024/01/26 03:52:44;;;;;;;3.60;3.50;;;10.30;1.00;;;;;;5034663;28;20465;-79
2024/01/26 03:55:13;;;;;;;3.80;3.70;;;10.20;1.00;;;;;;5035922;28;20452;-80
2024/01/26 03:57:42;;;;;;;3.53;3.43;;;10.30;1.00;;;;;;5037572;28;20452;-79
2024/01/26 04:00:11;;;;;;;3.70;3.60;;;10.30;1.00;;;;;;5034092;28;20611;-80
2024/01/26 04:02:40;;;;;;;4.07;3.97;;;10.10;1.00;;;;;;5036257;28;20483;-80
2024/01/26 04:05:10;;;;;;;3.93;3.83;;;10.20;60.70;;;;;;5033750;28;20571;-81
2024/01/26 04:07:39;;;;;;;3.30;3.20;;;10.30;1.00;;;;;;5034682;28;20460;-78
2024/01/26 04:10:08;;;;;;;3.50;3.40;;;10.30;1.00;;;;;;5036407;28;20489;-79
2024/01/26 04:12:37;;;;;;;3.37;3.27;;;10.30;1.00;;;;;;5036977;28;20466;-77
2024/01/26 04:15:06;;;;;;;3.47;3.37;;;10.20;1.00;;;;;;5037677;28;20454;-79
2024/01/26 04:17:35;;;;;;;3.57;3.47;;;10.30;1.00;;;;;;5035748;28;20510;-77
2024/01/26 04:20:05;;;;;;;3.43;3.30;;;10.20;1.00;;;;;;5034084;28;20529;-80
2024/01/26 04:22:33;;;;;;;3.30;3.20;;;10.20;1.00;;;;;;5036284;28;20476;-76
2024/01/26 04:25:04;;;;;;;3.50;3.40;;;10.20;1.00;;;;;;5036095;28;20582;-80
2024/01/26 04:27:32;;;;;;;3.50;3.40;;;10.20;1.00;;;;;;5034547;28;20467;-80
2024/01/26 04:30:01;;;;;;;3.40;3.30;;;10.20;1.00;;;;;;5036658;28;23007;-80
2024/01/26 04:32:29;;;;;;;3.53;3.43;;;10.30;1.00;;;;;;5043148;28;20447;-81
2024/01/26 04:34:57;;;;;;;3.60;3.50;;;10.30;1.00;;;;;;5038898;28;20525;-79
2024/01/26 04:37:26;;;;;;;3.60;3.40;;;10.30;1.00;;;;;;5038627;28;20538;-79
2024/01/26 04:39:55;;;;;;;3.40;3.30;;;10.20;1.00;;;;;;5041442;28;21317;-81
2024/01/26 04:42:24;;;;;;;3.60;3.50;;;10.20;1.00;;;;;;5036905;28;20468;-78
2024/01/26 04:44:54;;;;;;;3.50;3.40;;;10.20;99.90;;;;;;5033926;28;20433;-78
2024/01/26 04:47:22;;;;;;;3.70;3.60;;;10.30;1.00;;;;;;5033559;28;20460;-80
2024/01/26 04:49:50;;;;;;;3.87;3.77;;;10.20;99.90;;;;;;5033397;28;20480;-78
2024/01/26 04:52:19;;;;;;;3.43;3.30;;;10.10;1.00;;;;;;5036472;28;20475;-76
2024/01/26 04:54:48;;;;;;;3.90;3.70;;;10.20;99.90;;;;;;5029040;28;20452;-77
2024/01/26 04:57:16;;;;;;;3.50;3.40;;;10.20;99.90;;;;;;5034680;28;20452;-79
2024/01/26 04:59:46;;;;;;;3.73;3.63;;;10.20;1.00;;;;;;5033575;28;20502;-76
2024/01/26 05:02:14;;;;;;;3.67;3.57;;;10.20;99.90;;;;;;5032401;28;20457;-80
2024/01/26 05:04:42;;;;;;;3.37;3.27;;;10.20;99.90;;;;;;5039405;28;20464;-76
2024/01/26 05:07:11;;;;;;;3.70;3.60;;;10.20;99.90;;;;;;5032604;28;20886;-78
2024/01/26 05:09:40;;;;;;;4.10;4.00;;;10.20;99.90;;;;;;5034134;28;21282;-78
2024/01/26 05:12:08;;;;;;;3.60;3.50;;;10.20;99.90;;;;;;5034153;28;20983;-79
2024/01/26 05:14:36;;;;;;;3.70;3.60;;;10.20;1.00;;;;;;5038945;28;20462;-76
2024/01/26 05:17:06;;;;;;;4.13;3.93;;;10.20;1.00;;;;;;5045255;28;20456;-76
2024/01/26 05:19:34;;;;;;;3.40;3.30;;;10.20;1.00;;;;;;5033821;28;20504;-79
2024/01/26 05:22:03;;;;;;;3.70;3.50;;;10.20;1.00;;;;;;5032519;28;20542;-77
2024/01/26 05:24:31;;;;;;;3.20;3.10;;;10.30;1.00;;;;;;5035928;28;20550;-79
2024/01/26 05:26:59;;;;;;;3.70;3.60;;;10.20;1.00;;;;;;5034164;28;20483;-77
2024/01/26 05:29:28;;;;;;;3.57;3.47;;;10.30;1.00;;;;;;5034866;28;20492;-78
2024/01/26 05:31:56;;;;;;;3.80;3.70;;;10.30;32.00;;;;;;5031425;28;20465;-78
2024/01/26 05:34:26;;;;;;;3.40;3.30;;;10.40;9.60;;;;;;5031321;28;20491;-81
2024/01/26 05:36:54;;;;;;;3.80;3.70;;;10.30;1.00;;;;;;5035210;28;20776;-82
2024/01/26 05:39:22;;;;;;;4.13;4.03;;;10.40;1.00;;;;;;5033655;28;20472;-81
2024/01/26 05:41:50;;;;;;;4.00;3.90;;;10.40;99.90;;;;;;5035344;28;20456;-82
2024/01/26 05:44:19;;;;;;;3.80;3.60;;;10.30;99.90;;;;;;5037276;28;20546;-79
2024/01/26 05:46:47;;;;;;;4.57;4.17;;;10.30;99.90;;;;;;5036130;28;20528;-79
2024/01/26 05:49:15;;;;;;;3.50;3.33;;;10.30;99.90;;;;;;5035457;28;21226;-80
2024/01/26 05:51:45;;;;;;;3.50;3.40;;;10.30;99.90;;;;;;5035557;28;20480;-78
2024/01/26 05:54:14;;;;;;;3.43;3.33;;;10.30;99.90;;;;;;5034675;28;20452;-81
2024/01/26 05:56:43;;;;;;;3.20;3.10;;;10.40;99.90;;;;;;5035054;28;22290;-81
2024/01/26 05:59:18;;;;;;;2.90;2.90;;;10.30;99.90;;;;;;5036859;28;20530;-81
2024/01/26 06:01:46;;;;;;;3.60;3.50;;;10.30;99.90;;;;;;5037279;28;20460;-79
2024/01/26 06:04:14;;;;;;;3.70;3.50;;;10.30;99.90;;;;;;5038878;28;20489;-81
2024/01/26 06:06:43;;;;;;;3.50;3.40;;;10.20;99.90;;;;;;5033451;28;21388;-81
2024/01/26 06:09:13;;;;;;;3.53;3.43;;;10.30;99.90;;;;;;5034697;28;20490;-79
2024/01/26 06:11:43;;;;;;;3.90;3.70;;;10.20;90.10;;;;;;5036969;28;20970;-83
2024/01/26 06:14:11;;;;;;;4.03;3.90;;;10.20;99.90;;;;;;5037809;28;20513;-78
2024/01/26 06:16:40;;;;;;;3.30;3.20;;;10.30;99.90;;;;;;5032169;28;20535;-80
2024/01/26 06:19:08;;;;;;;3.33;3.23;;;10.30;99.90;;;;;;5035436;28;20567;-80
2024/01/26 06:21:36;;;;;;;3.57;3.47;;;10.30;99.90;;;;;;5035998;28;21063;-79
2024/01/26 06:24:05;;;;;;;3.50;3.40;;;10.30;99.90;;;;;;5038750;28;20483;-78
2024/01/26 06:26:35;;;;;;;3.80;3.63;;;10.30;99.90;;;;;;5052432;28;20464;-80
2024/01/26 06:29:04;;;;;;;3.60;3.50;;;10.20;77.10;;;;;;5035623;28;20554;-82
2024/01/26 06:31:32;;;;;;;3.40;3.30;;;10.30;99.90;;;;;;5039043;28;20466;-78
2024/01/26 06:34:00;;;;;;;3.67;3.57;;;10.30;99.90;;;;;;5036745;28;20454;-80
2024/01/26 06:36:29;;;;;;;3.70;3.60;;;10.30;99.90;;;;;;5039552;28;20451;-78
2024/01/26 06:38:57;;;;;;;6.00;5.40;;;10.40;99.90;;;;;;5044541;28;20547;-78
2024/01/26 06:41:26;;;;;;;3.73;3.40;;;10.40;99.90;;;;;;5042125;28;20460;-78
2024/01/26 06:43:55;;;;;;;3.20;3.10;;;10.40;99.90;;;;;;5037841;28;20543;-80
2024/01/26 06:46:24;;;;;;;3.30;3.20;;;10.40;99.90;;;;;;5034656;28;20567;-79
2024/01/26 06:48:51;;;;;;;3.37;3.27;;;10.50;99.90;;;;;;5033609;28;20463;-79
2024/01/26 06:51:21;;;;;;;3.10;3.00;;;10.40;44.10;;;;;;5037003;28;20465;-79
2024/01/26 06:53:50;;;;;;;3.87;3.77;;;10.40;99.90;;;;;;5038955;28;20448;-78
2024/01/26 06:56:19;;;;;;;3.50;3.30;;;10.50;99.90;;;;;;5041881;28;20460;-79
2024/01/26 06:58:47;;;;;;;3.70;3.60;;;10.50;55.90;;;;;;5035953;28;20672;-78
2024/01/26 07:01:18;;;;;;;3.60;3.50;;;10.40;99.90;;;;;;5035475;28;20472;-80
2024/01/26 07:03:46;;;;;;;4.00;3.80;;;10.50;99.90;;;;;;5039276;28;20839;-78
2024/01/26 07:06:15;;;;;;;3.60;3.50;;;10.50;56.50;;;;;;5043263;28;20448;-80
2024/01/26 07:08:43;;;;;;;3.60;3.50;;;10.50;61.60;;;;;;5042859;28;20466;-79
2024/01/26 07:11:14;;;;;;;3.20;3.10;;;10.50;32.90;;;;;;5045659;28;20469;-82
2024/01/26 07:13:42;;;;;;;3.50;3.40;;;10.60;99.90;;;;;;5044270;28;20456;-81
2024/01/26 07:16:11;;;;;;;3.40;3.30;;;10.60;19.20;;;;;;5038697;28;21026;-77
2024/01/26 07:18:41;;;;;;;3.53;3.43;;;10.60;98.00;;;;;;5039276;28;20466;-80
2024/01/26 07:21:10;;;;;;;3.30;3.10;;;10.60;23.90;;;;;;5041711;28;20845;-81
2024/01/26 07:23:40;;;;;;;3.47;3.37;;;10.60;99.90;;;;;;5040783;28;20511;-80
2024/01/26 07:26:10;;;;;;;3.30;3.20;;;10.50;99.90;;;;;;5038113;28;20475;-78
2024/01/26 07:28:39;;;;;;;3.40;3.30;;;10.50;99.90;;;;;;5040052;28;20456;-81
2024/01/26 07:31:09;;;;;;;3.47;3.37;;;10.50;99.90;;;;;;5039175;28;20481;-80
2024/01/26 07:33:37;;;;;;;3.40;3.30;;;10.50;99.90;;;;;;5044870;28;20564;-80
2024/01/26 07:36:09;;;;;;;3.80;3.70;;;10.50;99.90;;;;;;5043808;28;20452;-78
2024/01/26 07:38:39;;;;;;;4.23;3.77;;;10.60;99.90;;;;;;5044167;28;20965;-79
2024/01/26 07:41:08;;;;;;;3.97;3.50;;;10.50;75.50;;;;;;5040243;28;20479;-79
2024/01/26 07:43:36;;;;;;;3.60;3.50;;;10.60;99.90;;;;;;5040505;28;20459;-80
2024/01/26 07:46:05;;;;;;;3.60;3.40;;;10.60;72.60;;;;;;5042999;28;20855;-80
2024/01/26 07:48:34;;;;;;;3.60;3.50;;;10.60;88.60;;;;;;5037252;28;20453;-83
2024/01/26 07:51:04;;;;;;;3.80;3.67;;;10.60;34.10;;;;;;5040795;28;21850;-78
2024/01/26 07:53:34;;;;;;;3.80;3.70;;;10.60;47.10;;;;;;5042683;28;20464;-80
2024/01/26 07:56:04;;;;;;;3.60;3.40;;;10.60;1.00;;;;;;5041567;28;20948;-78
2024/01/26 07:58:35;;;;;;;3.57;3.47;;;10.60;23.00;;;;;;5040841;28;20456;-77
2024/01/26 08:01:06;;;;;;;3.43;3.33;;;10.60;86.90;;;;;;5034931;28;20475;-80
2024/01/26 08:03:35;;;;;;;3.63;3.53;;;10.60;1.00;;;;;;5040537;28;20956;-79
2024/01/26 08:06:05;;;;;;;3.73;3.63;;;10.70;99.90;;;;;;5039443;28;20460;-79
2024/01/26 08:08:36;;;;;;;4.37;4.27;;;10.70;72.80;;;;;;5039332;28;20447;-80
2024/01/26 08:11:05;;;;;;;3.70;3.60;;;10.70;1.00;;;;;;5041348;28;20510;-81
2024/01/26 08:13:34;;;;;;;3.60;3.50;;;10.80;1.00;;;;;;5039100;28;20456;-80
2024/01/26 08:16:04;;;;;;;3.97;3.80;;;10.80;1.00;;;;;;5039241;28;20457;-79
2024/01/26 08:18:34;;;;;;;3.60;3.50;;;10.80;1.00;;;;;;5038186;28;20452;-79
2024/01/26 08:21:04;;;;;;;3.60;3.50;;;10.90;1.00;;;;;;5039993;28;20475;-78
2024/01/26 08:23:36;;;;;;;4.13;3.93;;;11.00;1.00;;;;;;5040365;28;20468;-77
2024/01/26 08:26:05;;;;;;;3.83;3.73;;;10.90;1.00;;;;;;5034374;28;20488;-80
2024/01/26 08:28:35;;;;;;;3.67;3.37;;;11.00;1.00;;;;;;5034688;28;20989;-78
2024/01/26 08:31:05;;;;;;;3.70;3.50;;;11.10;1.00;;;;;;5036588;28;21095;-80
2024/01/26 08:33:33;;;;;;;3.70;3.60;;;10.90;1.00;;;;;;5040568;28;20437;-81
2024/01/26 08:36:04;;;;;;;4.10;4.00;;;11.00;1.00;;;;;;5040862;28;20452;-78
2024/01/26 08:38:35;;;;;;;3.87;3.77;;;11.00;1.00;;;;;;5038201;28;20460;-78
2024/01/26 08:41:07;;;;;;;3.87;3.77;;;11.00;1.00;;;;;;5040829;28;20807;-78
2024/01/26 08:43:36;;;;;;;3.90;3.80;;;11.10;1.00;;;;;;5041005;28;20519;-79
2024/01/26 08:46:05;;;;;;;3.90;3.80;;;11.00;1.00;;;;;;5035544;28;20476;-81
2024/01/26 08:48:34;;;;;;;3.50;3.40;;;11.10;1.00;;;;;;5039623;28;20484;-81
2024/01/26 08:51:03;;;;;;;3.93;3.83;;;11.10;1.00;;;;;;5043105;28;20472;-80
2024/01/26 08:53:31;;;;;;;4.07;3.87;;;11.20;1.00;;;;;;5042430;28;20445;-78
2024/01/26 08:56:04;;;;;;;3.40;3.30;;;11.10;99.90;;;;;;5040322;28;20454;-79
2024/01/26 08:58:33;;;;;;;4.00;3.80;;;11.20;1.00;;;;;;5042757;28;20456;-79
2024/01/26 09:01:01;;;;;;;3.67;3.50;;;11.20;99.90;;;;;;5042541;28;20476;-79
2024/01/26 09:03:30;;;;;;;3.67;3.57;;;11.20;1.00;;;;;;5042924;28;20456;-81
2024/01/26 09:05:59;;;;;;;3.50;3.40;;;11.10;1.00;;;;;;5041659;28;20496;-81
2024/01/26 09:08:28;;;;;;;3.77;3.67;;;11.10;1.00;;;;;;5043630;28;20459;-78
2024/01/26 09:10:56;;;;;;;3.60;3.40;;;11.00;1.00;;;;;;5041278;28;20466;-78
2024/01/26 09:13:26;;;;;;;3.70;3.60;;;11.10;1.00;;;;;;5044755;28;20451;-80
2024/01/26 09:15:54;;;;;;;4.10;4.00;;;11.10;1.00;;;;;;5042344;28;20440;-80
2024/01/26 09:18:24;;;;;;;4.20;4.10;;;11.10;1.00;;;;;;5042710;28;20447;-79
2024/01/26 09:21:11;;;;;;;3.67;3.57;;;11.10;1.00;;;;;;5041795;28;20538;-77
2024/01/26 09:23:43;;;;;;;4.10;4.00;;;11.20;1.00;;;;;;5037608;28;21136;-79
2024/01/26 09:26:12;;;;;;;4.27;4.17;;;11.10;1.00;;;;;;5038838;28;20889;-78
2024/01/26 09:28:42;;;;;;;3.53;3.43;;;11.10;1.00;;;;;;5037623;28;20490;-78
2024/01/26 09:31:10;;;;;;;3.43;3.33;;;11.10;1.00;;;;;;5037955;28;20518;-78
2024/01/26 09:33:39;;;;;;;3.97;3.77;;;11.20;1.00;;;;;;5041210;28;20578;-79
2024/01/26 09:36:07;;;;;;;3.63;3.53;;;11.20;1.00;;;;;;5041206;28;20436;-82
2024/01/26 09:38:36;;;;;;;4.10;3.90;;;11.10;1.00;;;;;;5037159;28;21008;-80
2024/01/26 09:41:05;;;;;;;4.33;4.13;;;11.10;1.00;;;;;;5042622;28;20540;-79
2024/01/26 09:43:34;;;;;;;4.10;3.90;;;11.10;1.00;;;;;;5043575;28;20450;-81
2024/01/26 09:46:04;;;;;;;4.17;3.97;;;11.10;1.00;;;;;;5042980;28;20464;-82
2024/01/26 09:48:34;;;;;;;3.93;3.83;;;11.20;99.90;;;;;;5042387;28;20464;-80
2024/01/26 09:51:02;;;;;;;3.70;3.60;;;11.20;99.90;;;;;;5041726;28;20842;-79
2024/01/26 09:53:32;;;;;;;3.80;3.70;;;11.30;99.90;;;;;;5042241;28;20459;-79
2024/01/26 09:56:01;;;;;;;4.30;4.20;;;11.30;99.90;;;;;;5041697;28;20452;-79
2024/01/26 09:58:30;;;;;;;3.90;3.80;;;11.40;99.90;;;;;;5039505;28;20475;-79
2024/01/26 10:00:58;;;;;;;4.00;3.90;;;11.30;99.90;;;;;;5037564;28;20484;-82
2024/01/26 10:03:28;;;;;;;3.70;3.60;;;11.30;99.90;;;;;;5043278;28;20450;-80
2024/01/26 10:06:03;;;;;;;4.50;4.30;;;11.40;99.90;;;;;;5038991;28;20566;-78
2024/01/26 10:08:38;;;;;;;4.40;4.30;;;11.40;99.90;;;;;;5041802;28;20508;-80
2024/01/26 10:11:07;;;;;;;4.30;4.20;;;11.40;99.90;;;;;;5041608;28;20484;-80
2024/01/26 10:13:35;;;;;;;4.97;4.77;;;11.50;99.90;;;;;;5039615;28;20464;-80
2024/01/26 10:16:07;;;;;;;4.50;4.20;;;11.50;99.90;;;;;;5043411;28;20448;-80
2024/01/26 10:18:43;;;;;;;4.90;4.63;;;11.50;99.90;;;;;;5042188;28;20563;-80
2024/01/26 10:21:14;;;;;;;4.30;4.20;;;11.50;99.90;;;;;;5040141;28;20539;-80
2024/01/26 10:23:43;;;;;;;4.10;4.00;;;11.50;99.90;;;;;;5038663;28;20922;-78
2024/01/26 10:26:12;;;;;;;4.30;4.10;;;11.50;99.90;;;;;;5041168;28;21082;-78
2024/01/26 10:28:43;;;;;;;4.20;4.10;;;11.50;99.90;;;;;;5040783;28;20456;-81
2024/01/26 10:31:11;;;;;;;4.37;4.17;;;11.50;99.90;;;;;;5041491;28;20467;-79
2024/01/26 10:33:46;;;;;;;4.20;4.10;;;11.50;99.90;;;;;;5040517;28;20459;-78
2024/01/26 10:36:16;;;;;;;4.33;4.23;;;11.40;99.90;;;;;;5039850;28;20537;-80
2024/01/26 10:38:46;;;;;;;4.30;4.20;;;11.50;99.90;;;;;;5039591;28;20460;-80
2024/01/26 10:41:21;;;;;;;4.17;4.07;;;11.50;99.90;;;;;;5040640;28;20479;-81
2024/01/26 10:43:55;;;;;;;4.10;4.00;;;11.60;99.90;;;;;;5034162;28;20563;-83
2024/01/26 10:46:25;;;;;;;4.30;4.10;;;11.60;99.90;;;;;;5039605;28;20463;-81
2024/01/26 10:48:56;;;;;;;4.10;3.90;;;11.60;99.90;;;;;;5043059;28;20606;-80
2024/01/26 10:51:26;;;;;;;4.07;3.97;;;11.60;99.90;;;;;;5029022;28;20511;-78
2024/01/26 10:53:57;;;;;;;3.70;3.60;;;11.60;99.90;;;;;;5039274;28;20460;-80
2024/01/26 10:56:25;;;;;;;3.97;3.87;;;11.60;99.90;;;;;;5042416;28;20448;-80
2024/01/26 10:58:53;;;;;;;3.97;3.87;;;11.70;99.90;;;;;;5039864;28;20543;-81
2024/01/26 11:01:22;;;;;;;3.80;3.70;;;11.70;99.90;;;;;;5038051;28;20475;-84
2024/01/26 11:03:50;;;;;;;3.90;3.80;;;11.70;99.90;;;;;;5040153;28;20452;-81
2024/01/26 11:06:20;;;;;;;4.43;4.23;;;11.70;99.90;;;;;;5039317;28;20556;-80
2024/01/26 11:08:49;;;;;;;3.70;3.60;;;11.70;99.90;;;;;;5038275;28;20505;-81
2024/01/26 11:11:25;;;;;;;4.27;4.17;;;11.70;99.90;;;;;;5040000;28;20448;-77
2024/01/26 11:13:54;;;;;;;4.60;4.40;;;11.80;99.90;;;;;;5040334;28;20460;-81
2024/01/26 11:16:25;;;;;;;4.23;4.10;;;11.80;99.90;;;;;;5038867;28;20544;-78
2024/01/26 11:18:58;;;;;;;4.07;3.97;;;11.70;99.90;;;;;;5039822;28;20456;-83
2024/01/26 11:21:39;;;;;;;3.80;3.70;;;11.80;1.00;;;;;;5035884;28;20468;-78
2024/01/26 11:24:16;;;;;;;3.90;3.80;;;11.70;99.90;;;;;;5037456;28;20458;-78
2024/01/26 11:26:56;;;;;;;3.80;3.70;;;11.70;1.00;;;;;;5036231;28;22379;-78
2024/01/26 11:29:32;;;;;;;4.30;4.10;;;11.70;99.90;;;;;;5034724;28;21020;-81
2024/01/26 11:32:00;;;;;;;4.53;4.40;;;11.70;99.90;;;;;;5032815;28;20460;-78
2024/01/26 11:34:29;;;;;;;4.33;4.13;;;11.70;99.90;;;;;;5041258;28;20466;-79
2024/01/26 11:37:11;;;;;;;4.30;4.20;;;11.70;99.90;;;;;;5036677;28;20456;-81
2024/01/26 11:39:39;;;;;;;4.10;4.00;;;11.60;1.00;;;;;;5037038;28;20504;-81
2024/01/26 11:42:11;;;;;;;4.40;4.20;;;11.60;1.00;;;;;;5032622;28;20455;-78
2024/01/26 11:44:41;;;;;;;4.47;4.17;;;11.70;1.00;;;;;;5035013;28;20452;-79
2024/01/26 11:47:09;;;;;;;4.60;4.40;;;11.70;1.00;;;;;;5053394;28;20544;-84
2024/01/26 11:49:38;;;;;;;4.83;4.67;;;11.60;1.00;;;;;;5038797;28;20885;-79
2024/01/26 11:52:08;;;;;;;5.87;5.20;;;11.60;1.00;;;;;;5037594;28;20488;-79
2024/01/26 11:54:36;;;;;;;4.10;4.00;;;11.70;1.00;;;;;;5044931;28;20452;-79
2024/01/26 11:57:05;;;;;;;4.60;4.50;;;11.70;1.00;;;;;;5045217;28;20440;-82
2024/01/26 11:59:35;;;;;;;4.70;4.50;;;11.70;1.00;;;;;;5038699;28;20537;-78
2024/01/26 12:02:04;;;;;;;4.53;4.43;;;11.70;1.00;;;;;;5034793;28;20514;-81
2024/01/26 12:04:33;;;;;;;4.00;3.90;;;11.70;1.00;;;;;;5033426;28;21285;-76
2024/01/26 12:07:02;;;;;;;4.40;4.30;;;11.70;1.00;;;;;;5032914;28;20484;-79
2024/01/26 12:09:34;;;;;;;4.10;4.00;;;11.70;1.00;;;;;;5038994;28;20479;-79
2024/01/26 12:12:07;;;;;;;3.60;3.50;;;11.80;1.00;;;;;;5041677;28;20440;-78
2024/01/26 12:14:36;;;;;;;3.57;3.47;;;11.80;1.00;;;;;;5037947;28;20475;-80
2024/01/26 12:17:05;;;;;;;4.47;4.27;;;11.80;1.00;;;;;;5037349;28;20455;-78
2024/01/26 12:19:33;;;;;;;4.33;4.07;;;11.80;1.00;;;;;;5035730;28;20480;-77
2024/01/26 12:22:02;;;;;;;3.77;3.67;;;11.80;1.00;;;;;;5034906;28;20705;-80
2024/01/26 12:24:33;;;;;;;4.40;4.10;;;11.90;1.00;;;;;;5041050;28;20881;-81
2024/01/26 12:27:02;;;;;;;4.40;4.20;;;11.90;1.00;;;;;;5038145;28;20575;-79
2024/01/26 12:29:30;;;;;;;4.13;4.03;;;11.90;1.00;;;;;;5041540;28;20519;-79
2024/01/26 12:32:04;;;;;;;4.23;4.13;;;11.90;2.80;;;;;;5025615;28;20487;-79
2024/01/26 12:34:34;;;;;;;4.40;4.30;;;11.80;1.00;;;;;;5038486;28;20464;-79
2024/01/26 12:37:04;;;;;;;4.20;4.10;;;11.80;1.00;;;;;;5042317;28;20494;-80
2024/01/26 12:39:34;;;;;;;4.17;4.07;;;11.80;1.00;;;;;;5039665;28;20589;-79
2024/01/26 12:42:02;;;;;;;4.10;4.00;;;11.70;1.00;;;;;;5041163;28;20448;-78
2024/01/26 12:44:32;;;;;;;4.30;4.20;;;11.80;99.90;;;;;;5040478;28;20457;-81
2024/01/26 12:47:03;;;;;;;4.67;4.57;;;11.80;41.90;;;;;;5039819;28;20478;-79
2024/01/26 12:49:32;;;;;;;4.30;4.20;;;11.80;99.90;;;;;;5041618;28;20484;-77
2024/01/26 12:52:02;;;;;;;4.30;4.13;;;11.80;99.90;;;;;;5037277;28;20462;-79
2024/01/26 12:54:30;;;;;;;4.30;4.20;;;11.80;99.90;;;;;;5040956;28;20456;-79
2024/01/26 12:57:02;;;;;;;5.23;5.13;;;11.80;99.90;;;;;;5039637;28;20449;-79
2024/01/26 12:59:30;;;;;;;5.30;5.00;;;11.90;99.90;;;;;;5039715;28;20563;-82
2024/01/26 13:01:59;;;;;;;4.87;4.77;;;11.90;1.00;;;;;;5041066;28;20593;-79
2024/01/26 13:04:28;;;;;;;4.70;4.60;;;11.90;90.00;;;;;;5038798;28;20444;-80